Time;durP1;ratioP1;P1;durP2;ratioP2;P2;SDS_P1;SDS_P2;PMS_P1;PMS_P2;Temp;Humidity;BMP_temperature;BMP_pressure;BME280_temperature;BME280_humidity;BME280_pressure;Samples;Min_cycle;Max_cycle;Signal;HPM_P1;HPM_P2
2021/04/23 00:01:22;;;;;;;8.43;4.40;;;;;;;5.52;58.58;100048.44;5083412;28;20220;-80
2021/04/23 00:04:19;;;;;;;9.17;4.60;;;;;;;5.54;58.08;100047.28;5084494;28;20532;-81
2021/04/23 00:07:30;;;;;;;8.83;4.00;;;;;;;5.64;57.92;100050.53;5079869;28;20303;-79
2021/04/23 00:10:20;;;;;;;9.73;4.13;;;;;;;5.57;58.00;100043.41;5081270;28;20231;-79
2021/04/23 00:13:28;;;;;;;6.90;4.17;;;;;;;5.66;57.75;100050.31;5065272;28;20252;-80
2021/04/23 00:16:17;;;;;;;8.57;4.77;;;;;;;5.54;58.79;100041.13;5066874;28;20217;-79
2021/04/23 00:19:14;;;;;;;8.13;4.80;;;;;;;5.54;58.91;100047.28;5082333;28;20225;-80
2021/04/23 00:22:13;;;;;;;10.37;4.40;;;;;;;5.60;58.91;100051.06;5064645;28;20252;-79
2021/04/23 00:25:11;;;;;;;7.70;4.30;;;;;;;5.76;57.83;100035.78;5063217;28;20255;-80
2021/04/23 00:28:15;;;;;;;6.77;4.23;;;;;;;5.74;57.96;100051.09;5078906;28;20292;-80
2021/04/23 00:31:07;;;;;;;8.60;4.43;;;;;;;5.58;58.66;100040.59;5096055;28;20678;-79
2021/04/23 00:34:08;;;;;;;8.37;4.30;;;;;;;5.54;58.71;100041.13;5068397;28;20235;-81
2021/04/23 00:36:58;;;;;;;8.70;4.63;;;;;;;5.66;58.45;100042.34;5063271;28;20255;-79
2021/04/23 00:39:57;;;;;;;9.60;4.80;;;;;;;5.59;58.04;100033.44;5083155;28;20284;-79
2021/04/23 00:42:51;;;;;;;9.33;4.33;;;;;;;5.41;58.70;100024.94;5084057;28;20677;-80
2021/04/23 00:45:51;;;;;;;13.33;5.17;;;;;;;5.47;58.53;100048.13;5084501;28;20289;-79
2021/04/23 00:48:51;;;;;;;8.80;4.80;;;;;;;5.32;59.96;100042.75;5063845;28;20271;-79
2021/04/23 00:52:05;;;;;;;7.20;4.37;;;;;;;5.35;59.10;100039.75;5064583;28;20316;-81
2021/04/23 00:55:23;;;;;;;8.07;4.60;;;;;;;5.26;59.56;100025.69;5064893;28;20636;-80
2021/04/23 00:58:27;;;;;;;7.47;4.47;;;;;;;5.12;59.26;100036.25;5040898;28;20577;-80
2021/04/23 01:01:40;;;;;;;7.73;4.47;;;;;;;5.21;59.02;100051.97;5040620;28;20226;-79
2021/04/23 01:04:30;;;;;;;8.87;4.33;;;;;;;5.18;58.95;100036.34;5028281;28;20226;-79
2021/04/23 01:07:31;;;;;;;9.00;4.80;;;;;;;5.09;59.90;100040.06;5045501;22;20234;-80
2021/04/23 01:10:31;;;;;;;8.03;4.33;;;;;;;5.07;60.01;100046.56;5071260;28;20248;-79
2021/04/23 01:13:27;;;;;;;9.50;4.40;;;;;;;4.97;60.05;100040.63;5046230;28;20214;-78
2021/04/23 01:16:29;;;;;;;6.37;4.17;;;;;;;5.00;60.07;100057.03;5068479;22;20560;-79
2021/04/23 01:19:40;;;;;;;9.07;4.80;;;;;;;4.94;60.23;100049.78;5029406;28;20247;-79
2021/04/23 01:22:45;;;;;;;9.10;4.20;;;;;;;4.90;60.64;100059.06;5051897;28;20519;-80
2021/04/23 01:25:30;;;;;;;7.83;4.30;;;;;;;4.94;59.75;100049.78;5064605;28;20641;-79
2021/04/23 01:28:47;;;;;;;7.93;4.60;;;;;;;4.91;59.75;100055.44;5062979;28;20678;-82
2021/04/23 01:31:39;;;;;;;8.83;4.07;;;;;;;4.96;59.93;100053.09;5063734;28;20232;-82
2021/04/23 01:34:39;;;;;;;6.10;4.17;;;;;;;5.00;59.53;100062.34;5043135;28;20261;-82
2021/04/23 01:37:34;;;;;;;9.47;4.40;;;;;;;4.97;59.51;100067.19;5029414;28;20225;-81
2021/04/23 01:40:27;;;;;;;6.40;4.07;;;;;;;4.83;59.32;100066.09;5042624;28;20246;-81
2021/04/23 01:43:40;;;;;;;8.30;4.20;;;;;;;4.82;60.52;100065.25;5045439;28;20225;-83
2021/04/23 01:46:58;;;;;;;7.43;4.00;;;;;;;4.82;60.17;100078.53;5041913;28;20233;-81
2021/04/23 01:49:41;;;;;;;6.77;4.27;;;;;;;4.86;60.28;100079.84;5042305;28;20307;-82
2021/04/23 01:52:42;;;;;;;9.43;4.10;;;;;;;4.81;59.62;100071.56;5042071;28;20217;-82
2021/04/23 01:55:40;;;;;;;7.63;3.93;;;;;;;4.90;59.31;100085.63;5061009;28;20300;-82
2021/04/23 01:58:42;;;;;;;6.83;4.07;;;;;;;4.75;59.57;100084.72;5062761;28;20324;-81
2021/04/23 02:01:35;;;;;;;6.90;4.20;;;;;;;4.65;60.21;100073.44;5049767;28;20221;-82
2021/04/23 02:04:32;;;;;;;8.73;3.90;;;;;;;4.70;59.48;100071.94;5064784;28;20236;-82
2021/04/23 02:07:32;;;;;;;6.23;4.17;;;;;;;4.66;59.42;100077.78;5052835;28;20299;-82
2021/04/23 02:10:31;;;;;;;7.10;4.10;;;;;;;4.57;59.97;100076.16;5046414;28;20229;-82
2021/04/23 02:13:35;;;;;;;6.07;3.73;;;;;;;4.60;59.84;100084.59;5047935;28;20224;-82
2021/04/23 02:16:31;;;;;;;6.23;3.77;;;;;;;4.47;60.87;100073.69;5046053;28;20268;-82
2021/04/23 02:19:28;;;;;;;7.93;3.70;;;;;;;4.58;59.85;100089.22;5047359;28;20213;-82
2021/04/23 02:22:48;;;;;;;6.73;4.03;;;;;;;4.49;60.45;100081.44;5045145;28;20225;-79
2021/04/23 02:26:07;;;;;;;7.80;3.70;;;;;;;4.41;59.75;100077.00;5047751;28;20309;-81
2021/04/23 02:29:15;;;;;;;6.40;3.50;;;;;;;4.37;60.69;100084.47;5055646;28;20217;-82
2021/04/23 02:32:14;;;;;;;7.80;3.90;;;;;;;4.38;60.95;100085.31;5066025;28;20233;-81
2021/04/23 02:35:08;;;;;;;8.00;4.37;;;;;;;4.41;61.61;100085.78;5066497;28;20229;-82
2021/04/23 02:38:07;;;;;;;8.30;4.10;;;;;;;4.38;61.07;100085.31;5066961;28;20637;-81
2021/04/23 02:41:00;;;;;;;6.77;3.77;;;;;;;4.32;61.12;100088.63;5065995;28;20201;-82
2021/04/23 02:44:09;;;;;;;9.90;3.93;;;;;;;4.30;61.09;100090.59;5065947;28;20271;-83
2021/04/23 02:47:02;;;;;;;8.83;4.13;;;;;;;4.08;62.05;100072.72;5050343;28;20229;-82
2021/04/23 02:49:52;;;;;;;6.60;4.40;;;;;;;4.05;62.42;100076.56;5051932;28;20198;-82
2021/04/23 02:52:55;;;;;;;11.07;3.63;;;;;;;3.96;62.68;100091.66;5064824;28;20525;-82
2021/04/23 02:55:45;;;;;;;8.83;4.27;;;;;;;3.82;63.79;100073.75;5043461;28;20734;-84
2021/04/23 02:58:36;;;;;;;9.20;4.27;;;;;;;3.82;64.18;100084.34;5059693;28;20233;-82
2021/04/23 03:01:44;;;;;;;9.50;4.10;;;;;;;3.76;63.33;100076.22;5064768;28;20225;-82
2021/04/23 03:04:42;;;;;;;9.07;4.63;;;;;;;3.80;63.11;100086.31;5062747;28;20253;-81
2021/04/23 03:07:44;;;;;;;8.33;4.20;;;;;;;3.72;63.96;100085.50;5062849;28;20236;-82
2021/04/23 03:10:47;;;;;;;9.47;4.77;;;;;;;3.68;64.48;100089.47;5061729;28;20229;-82
2021/04/23 03:13:44;;;;;;;8.40;4.30;;;;;;;3.53;64.28;100079.53;5050786;28;20230;-81
2021/04/23 03:16:43;;;;;;;7.67;4.10;;;;;;;3.51;64.86;100084.13;5061560;28;20562;-82
2021/04/23 03:19:35;;;;;;;8.60;4.33;;;;;;;3.48;65.06;100086.28;5063474;28;20308;-82
2021/04/23 03:22:26;;;;;;;8.30;4.17;;;;;;;3.45;65.41;100095.38;5049261;28;20230;-82
2021/04/23 03:25:28;;;;;;;5.30;3.90;;;;;;;3.37;65.35;100086.59;5062447;28;20233;-81
2021/04/23 03:28:26;;;;;;;7.10;4.33;;;;;;;3.34;65.69;100095.69;5061784;28;20229;-82
2021/04/23 03:31:28;;;;;;;7.70;4.70;;;;;;;3.29;66.99;100108.59;5038913;28;20226;-79
2021/04/23 03:34:23;;;;;;;10.90;5.30;;;;;;;3.22;66.82;100098.81;5029963;28;20226;-81
2021/04/23 03:37:12;;;;;;;8.97;4.60;;;;;;;3.05;67.54;100082.03;5061978;28;20228;-81
2021/04/23 03:40:05;;;;;;;8.97;4.70;;;;;;;3.06;67.49;100095.13;5060999;28;20508;-81
2021/04/23 03:42:59;;;;;;;8.27;4.70;;;;;;;3.13;67.65;100107.72;5061385;28;20237;-81
2021/04/23 03:45:52;;;;;;;9.83;4.20;;;;;;;3.05;67.71;100108.50;5064106;28;20257;-81
2021/04/23 03:48:45;;;;;;;8.83;4.87;;;;;;;3.00;67.96;100110.81;5063793;28;20240;-82
2021/04/23 03:51:31;;;;;;;8.57;4.90;;;;;;;2.90;67.54;100099.50;5063457;28;20316;-81
2021/04/23 03:54:24;;;;;;;9.10;4.77;;;;;;;3.00;67.81;100116.94;5060987;28;20304;-81
2021/04/23 03:57:03;;;;;;;8.83;4.20;;;;;;;3.00;68.08;100110.81;5045359;28;20230;-81
2021/04/23 03:59:40;;;;;;;7.03;4.10;;;;;;;2.86;67.53;100096.34;5042563;28;20297;-81
2021/04/23 04:02:36;;;;;;;9.20;4.90;;;;;;;3.05;67.76;100117.28;5028536;28;20226;-82
2021/04/23 04:05:27;;;;;;;11.23;4.90;;;;;;;3.02;67.59;100112.31;5044672;28;20184;-81
2021/04/23 04:08:13;;;;;;;8.13;4.50;;;;;;;3.01;68.20;100117.75;5041133;28;20236;-81
2021/04/23 04:11:00;;;;;;;8.77;5.17;;;;;;;3.02;67.86;100116.78;5052825;28;20248;-81
2021/04/23 04:14:01;;;;;;;6.47;4.03;;;;;;;3.18;66.82;100129.22;5064477;28;20228;-81
2021/04/23 04:17:02;;;;;;;8.80;3.93;;;;;;;3.29;66.62;100113.91;5041973;28;20668;-81
2021/04/23 04:20:06;;;;;;;9.93;4.40;;;;;;;3.38;65.68;100112.09;5056336;28;20234;-82
2021/04/23 04:22:52;;;;;;;8.70;4.13;;;;;;;3.51;65.63;100139.78;5062942;28;20228;-80
2021/04/23 04:25:45;;;;;;;5.90;3.90;;;;;;;3.50;65.92;100126.69;5061840;28;20225;-81
2021/04/23 04:28:36;;;;;;;6.40;3.77;;;;;;;3.64;65.14;100131.34;5063746;28;20237;-82
2021/04/23 04:31:30;;;;;;;11.97;4.07;;;;;;;3.78;64.41;100135.22;5059942;28;20233;-81
2021/04/23 04:34:30;;;;;;;10.70;4.20;;;;;;;3.88;64.91;100127.91;5061359;28;20237;-81
2021/04/23 04:37:11;;;;;;;9.17;4.57;;;;;;;4.07;64.77;100140.84;5046575;28;20239;-80
2021/04/23 04:40:12;;;;;;;10.47;4.20;;;;;;;4.24;63.97;100145.16;5046776;28;20248;-80
2021/04/23 04:43:05;;;;;;;10.10;4.10;;;;;;;4.39;63.72;100153.25;5060332;28;20225;-80
2021/04/23 04:45:55;;;;;;;10.73;4.30;;;;;;;4.57;63.69;100156.59;5048104;28;20505;-82
2021/04/23 04:48:53;;;;;;;11.00;4.80;;;;;;;4.66;63.25;100152.91;5057872;28;20236;-81
2021/04/23 04:51:53;;;;;;;11.30;4.90;;;;;;;4.78;62.56;100143.59;5060185;28;20245;-80
2021/04/23 04:55:01;;;;;;;7.87;4.70;;;;;;;4.99;63.40;100161.63;5031995;28;20233;-81
2021/04/23 04:58:10;;;;;;;10.20;4.60;;;;;;;5.19;62.57;100165.53;5062177;28;20220;-81
2021/04/23 05:01:09;;;;;;;6.27;4.40;;;;;;;5.33;62.12;100162.16;5057723;28;20228;-80
2021/04/23 05:03:57;;;;;;;9.20;5.17;;;;;;;5.52;61.16;100163.56;5062583;28;20225;-81
2021/04/23 05:06:53;;;;;;;7.07;4.10;;;;;;;5.67;60.49;100164.47;5061512;28;20205;-83
2021/04/23 05:09:48;;;;;;;6.70;4.23;;;;;;;5.86;59.85;100170.34;5058506;28;20226;-81
2021/04/23 05:12:41;;;;;;;8.07;4.57;;;;;;;6.04;58.84;100174.41;5060825;28;20236;-81
2021/04/23 05:15:29;;;;;;;8.20;4.07;;;;;;;6.20;58.71;100176.94;5060247;28;20283;-80
2021/04/23 05:18:34;;;;;;;10.13;4.20;;;;;;;6.45;57.52;100182.06;5020214;28;20236;-79
2021/04/23 05:21:31;;;;;;;7.20;3.63;;;;;;;6.63;56.85;100186.03;5027912;28;20221;-82
2021/04/23 05:24:36;;;;;;;8.90;4.20;;;;;;;6.81;56.50;100182.25;5039579;28;20232;-80
2021/04/23 05:27:26;;;;;;;10.40;4.50;;;;;;;6.96;56.19;100194.53;5026494;28;20292;-80
2021/04/23 05:30:19;;;;;;;6.37;3.93;;;;;;;7.18;56.65;100189.34;5039478;28;20245;-80
2021/04/23 05:33:14;;;;;;;10.37;4.50;;;;;;;7.32;56.33;100199.16;5025205;28;20225;-82
2021/04/23 05:36:18;;;;;;;9.97;4.43;;;;;;;7.56;56.33;100206.03;5025247;28;20242;-79
2021/04/23 05:39:19;;;;;;;8.80;4.00;;;;;;;7.68;55.63;100202.69;5038119;28;20221;-80
2021/04/23 05:42:21;;;;;;;8.70;4.10;;;;;;;7.96;54.23;100221.50;5037864;28;20211;-78
2021/04/23 05:45:29;;;;;;;6.97;3.70;;;;;;;8.21;52.79;100217.44;5039413;28;20252;-80
2021/04/23 05:48:39;;;;;;;10.10;3.93;;;;;;;8.32;52.10;100208.97;5024172;28;20222;-80
2021/04/23 05:51:32;;;;;;;8.17;3.47;;;;;;;8.57;51.67;100209.41;5010107;28;20234;-80
2021/04/23 05:54:29;;;;;;;10.50;4.30;;;;;;;8.81;50.34;100225.03;5022094;28;20276;-79
2021/04/23 05:57:10;;;;;;;5.90;3.37;;;;;;;8.93;49.61;100214.59;5019992;28;20463;-80
2021/04/23 06:00:01;;;;;;;8.47;3.23;;;;;;;9.00;49.11;100220.84;5021139;28;20230;-82
2021/04/23 06:02:54;;;;;;;7.90;3.70;;;;;;;9.17;48.98;100221.34;5023908;28;20232;-82
2021/04/23 06:05:47;;;;;;;9.03;3.33;;;;;;;9.29;48.53;100239.31;5038599;28;20229;-79
2021/04/23 06:08:35;;;;;;;9.17;3.30;;;;;;;9.55;48.15;100227.13;5007348;28;20249;-81
2021/04/23 06:11:28;;;;;;;8.00;3.60;;;;;;;9.59;47.87;100226.53;5024314;28;20229;-81
2021/04/23 06:14:16;;;;;;;7.50;3.63;;;;;;;9.70;47.67;100233.97;5037539;28;20237;-80
2021/04/23 06:17:12;;;;;;;6.20;3.60;;;;;;;9.98;45.90;100227.72;5037721;28;20629;-80
2021/04/23 06:20:08;;;;;;;9.30;3.87;;;;;;;9.98;45.39;100238.44;5058516;28;20229;-82
2021/04/23 06:22:52;;;;;;;6.33;3.53;;;;;;;9.81;46.07;100235.25;5059358;28;20244;-80
2021/04/23 06:25:41;;;;;;;9.20;3.57;;;;;;;9.80;45.58;100235.47;5064209;28;20234;-82
2021/04/23 06:28:56;;;;;;;6.30;3.30;;;;;;;10.04;46.45;100233.06;5064044;28;20224;-82
2021/04/23 06:32:01;;;;;;;8.37;3.80;;;;;;;10.16;45.10;100244.06;5062394;28;20225;-80
2021/04/23 06:34:51;;;;;;;8.07;3.50;;;;;;;10.18;43.86;100231.28;5064173;28;20229;-81
2021/04/23 06:38:08;;;;;;;8.80;3.60;;;;;;;10.23;44.76;100244.06;5068912;28;20239;-78
2021/04/23 06:49:23;;;;;;;7.60;3.10;;;;;;;10.02;44.68;100235.16;5017344;23;21291;-77
2021/04/23 06:52:20;;;;;;;5.27;2.90;;;;;;;10.36;44.60;100233.41;5043165;28;20228;-80
2021/04/23 06:54:57;;;;;;;5.83;3.10;;;;;;;10.46;44.65;100239.16;5053242;28;20233;-80
2021/04/23 06:57:40;;;;;;;7.20;3.30;;;;;;;10.65;44.48;100242.91;5031464;28;20315;-80
2021/04/23 07:00:34;;;;;;;6.23;3.10;;;;;;;10.51;44.44;100240.22;5047387;28;20237;-80
2021/04/23 07:03:23;;;;;;;4.93;3.23;;;;;;;10.44;44.20;100238.56;5053268;28;20212;-79
2021/04/23 07:06:10;;;;;;;7.03;2.93;;;;;;;10.60;43.41;100248.88;5050053;28;20307;-80
2021/04/23 07:08:46;;;;;;;7.20;2.90;;;;;;;10.51;42.89;100253.59;5039187;28;20221;-79
2021/04/23 07:11:20;;;;;;;6.67;3.57;;;;;;;10.34;43.66;100252.34;5046096;28;20308;-80
2021/04/23 07:13:52;;;;;;;7.77;3.17;;;;;;;10.40;44.37;100250.72;5063773;28;20165;-79
2021/04/23 07:16:35;;;;;;;7.90;3.30;;;;;;;10.20;44.62;100264.06;5049921;28;20181;-81
2021/04/23 07:19:13;;;;;;;5.30;2.87;;;;;;;10.34;43.98;100248.84;5045946;28;20233;-79
2021/04/23 07:21:50;;;;;;;6.93;3.00;;;;;;;10.42;44.03;100257.50;5046493;28;20252;-81
2021/04/23 07:24:34;;;;;;;6.20;3.13;;;;;;;10.56;43.63;100258.34;5033775;28;20253;-81
2021/04/23 07:27:17;;;;;;;5.97;2.80;;;;;;;10.70;42.49;100268.06;5049339;28;20216;-80
2021/04/23 07:29:59;;;;;;;8.27;3.00;;;;;;;10.74;43.45;100263.09;5063330;28;20266;-80
2021/04/23 07:32:45;;;;;;;6.00;2.70;;;;;;;10.91;43.18;100275.94;5044113;28;20651;-79
2021/04/23 07:35:22;;;;;;;7.13;3.13;;;;;;;11.03;42.40;100268.91;5078627;28;20217;-81
2021/04/23 07:38:14;;;;;;;6.77;3.37;;;;;;;11.09;42.88;100272.63;5031279;28;20221;-80
2021/04/23 07:40:52;;;;;;;9.17;3.40;;;;;;;11.15;41.55;100277.13;5031729;28;20548;-81
2021/04/23 07:43:33;;;;;;;6.60;3.57;;;;;;;11.01;41.94;100264.78;5067626;28;20297;-82
2021/04/23 07:46:18;;;;;;;6.27;3.10;;;;;;;11.09;42.16;100272.63;5067918;28;20239;-81
2021/04/23 07:49:11;;;;;;;5.47;2.73;;;;;;;11.15;40.89;100268.28;5061980;28;20233;-82
2021/04/23 07:51:53;;;;;;;7.63;2.73;;;;;;;11.23;41.09;100270.75;5045212;28;20229;-79
2021/04/23 07:54:53;;;;;;;6.63;3.27;;;;;;;11.21;40.30;100270.13;5051747;28;20222;-79
2021/04/23 07:57:57;;;;;;;5.50;2.50;;;;;;;11.38;41.43;100272.16;5023146;28;20245;-81
2021/04/23 08:00:45;;;;;;;7.87;2.80;;;;;;;11.57;40.71;100265.09;5053386;28;20232;-80
2021/04/23 08:03:38;;;;;;;6.47;3.13;;;;;;;11.57;40.40;100258.91;5045133;28;20232;-80
2021/04/23 08:06:24;;;;;;;6.73;2.80;;;;;;;11.63;39.51;100237.41;5040112;28;20230;-79
2021/04/23 08:09:21;;;;;;;6.17;3.00;;;;;;;11.71;38.28;100250.59;5024017;28;20711;-80
2021/04/23 08:12:27;;;;;;;8.47;2.70;;;;;;;11.81;38.32;100250.19;5024736;28;20554;-80
2021/04/23 08:15:30;;;;;;;5.07;2.50;;;;;;;11.64;37.35;100257.84;5047152;28;20307;-80
2021/04/23 08:18:20;;;;;;;5.97;2.47;;;;;;;11.85;37.74;100249.53;5057612;28;20229;-79
2021/04/23 08:21:10;;;;;;;5.97;2.63;;;;;;;11.68;39.02;100253.72;5045210;28;20276;-80
2021/04/23 08:23:59;;;;;;;6.80;2.93;;;;;;;12.09;38.39;100260.59;5026396;28;20675;-81
2021/04/23 08:26:38;;;;;;;7.20;2.90;;;;;;;12.01;39.44;100260.84;5055415;28;20229;-80
2021/04/23 08:29:24;;;;;;;7.03;3.10;;;;;;;12.23;38.36;100259.47;5059860;28;20233;-80
2021/04/23 08:32:07;;;;;;;6.07;3.00;;;;;;;12.24;37.54;100259.28;5059973;28;20231;-80
2021/04/23 08:34:58;;;;;;;8.37;3.00;;;;;;;12.45;35.67;100252.75;5057181;28;20233;-80
2021/04/23 08:37:51;;;;;;;5.07;2.80;;;;;;;12.58;36.83;100252.66;5025803;28;20226;-81
2021/04/23 08:40:42;;;;;;;6.13;3.03;;;;;;;12.58;35.82;100249.16;5042001;28;20305;-80
2021/04/23 08:43:16;;;;;;;6.13;3.30;;;;;;;12.70;36.98;100247.41;5023353;28;20257;-79
2021/04/23 08:45:55;;;;;;;5.77;3.20;;;;;;;12.75;36.29;100250.25;5039519;28;20236;-80
2021/04/23 08:48:47;;;;;;;6.53;2.93;;;;;;;12.77;36.08;100248.19;5044155;28;21339;-79
2021/04/23 08:51:38;;;;;;;4.20;2.93;;;;;;;12.60;35.85;100236.31;5057408;28;20224;-80
2021/04/23 08:54:38;;;;;;;4.57;2.73;;;;;;;12.87;36.87;100245.84;5065830;28;20221;-79
2021/04/23 08:57:45;;;;;;;4.83;2.83;;;;;;;12.88;35.77;100241.28;5019702;28;20228;-80
2021/04/23 09:00:35;;;;;;;7.20;3.00;;;;;;;12.83;35.98;100233.06;5049203;28;20229;-79
2021/04/23 09:03:31;;;;;;;6.67;3.10;;;;;;;12.95;35.99;100233.97;5065536;28;20225;-79
2021/04/23 09:06:29;;;;;;;6.37;3.27;;;;;;;12.70;35.86;100224.03;5065222;28;20232;-82
2021/04/23 09:09:22;;;;;;;5.67;3.00;;;;;;;12.88;35.00;100236.69;5066038;28;20574;-79
2021/04/23 09:12:36;;;;;;;7.23;2.90;;;;;;;13.45;35.65;100250.91;5035044;28;20244;-80
2021/04/23 09:15:31;;;;;;;7.00;3.47;;;;;;;13.62;35.24;100243.91;5045087;28;20235;-82
2021/04/23 09:18:25;;;;;;;8.40;3.10;;;;;;;13.89;33.67;100237.16;5034692;28;20226;-80
2021/04/23 09:21:23;;;;;;;6.33;3.07;;;;;;;14.34;33.26;100224.09;5041375;28;20224;-79
2021/04/23 09:24:09;;;;;;;6.90;3.00;;;;;;;14.80;32.70;100241.44;5083472;28;20292;-79
2021/04/23 09:26:41;;;;;;;7.33;2.80;;;;;;;14.89;32.47;100221.16;5057574;28;20229;-79
2021/04/23 09:29:30;;;;;;;7.10;3.10;;;;;;;15.19;32.38;100227.31;5050787;28;20189;-81
2021/04/23 09:32:39;;;;;;;5.70;3.03;;;;;;;14.99;33.49;100229.50;5062837;28;20495;-79
2021/04/23 09:35:30;;;;;;;6.70;3.10;;;;;;;15.03;32.12;100216.38;5048935;28;20225;-79
2021/04/23 09:38:29;;;;;;;4.80;2.40;;;;;;;15.08;31.46;100222.72;5058340;28;20303;-79
2021/04/23 09:41:31;;;;;;;6.93;3.13;;;;;;;15.04;31.13;100224.25;5062387;28;20221;-79
2021/04/23 09:44:34;;;;;;;5.27;2.77;;;;;;;15.08;31.96;100224.59;5064142;28;20226;-79
2021/04/23 09:47:27;;;;;;;6.13;2.77;;;;;;;14.86;31.70;100217.06;5069871;28;20217;-79
2021/04/23 09:50:10;;;;;;;6.77;2.97;;;;;;;14.67;32.35;100218.22;5038107;28;20321;-79
2021/04/23 09:53:09;;;;;;;3.80;2.50;;;;;;;14.99;31.98;100216.03;5057269;28;20252;-82
2021/04/23 09:56:08;;;;;;;5.67;2.70;;;;;;;14.82;32.31;100215.09;5056373;28;20214;-81
2021/04/23 09:59:16;;;;;;;5.80;3.20;;;;;;;15.04;33.55;100218.03;5052553;28;20245;-79
2021/04/23 10:02:08;;;;;;;3.47;2.37;;;;;;;14.92;30.86;100218.03;5067416;28;20229;-80
2021/04/23 10:04:38;;;;;;;3.93;2.83;;;;;;;15.06;30.58;100203.25;5065801;28;20225;-79
2021/04/23 10:07:21;;;;;;;5.40;2.97;;;;;;;15.41;30.70;100209.44;5062747;28;20229;-79
2021/04/23 10:10:12;;;;;;;4.60;2.80;;;;;;;15.55;29.38;100201.94;5061892;28;20253;-79
2021/04/23 10:13:09;;;;;;;4.83;2.60;;;;;;;15.86;30.38;100203.38;5058762;28;20311;-79
2021/04/23 10:16:09;;;;;;;4.73;2.90;;;;;;;15.73;30.06;100193.66;5045165;28;20222;-79
2021/04/23 10:18:58;;;;;;;5.43;2.93;;;;;;;15.46;29.84;100194.41;5040584;28;20241;-80
2021/04/23 10:21:46;;;;;;;6.23;2.80;;;;;;;15.53;29.44;100185.16;5046777;28;20222;-79
2021/04/23 10:24:41;;;;;;;5.47;2.87;;;;;;;15.79;30.42;100195.41;5064398;28;20236;-81
2021/04/23 10:27:30;;;;;;;5.40;3.07;;;;;;;15.91;30.21;100181.06;5056220;28;20518;-78
2021/04/23 10:30:17;;;;;;;5.63;3.00;;;;;;;15.51;29.52;100172.94;5043040;28;20258;-79
2021/04/23 10:33:22;;;;;;;3.87;2.47;;;;;;;15.80;29.38;100180.84;5045452;28;20230;-79
2021/04/23 10:36:20;;;;;;;4.13;2.47;;;;;;;15.79;29.24;100181.06;5061312;28;20229;-79
2021/04/23 10:39:15;;;;;;;6.77;2.73;;;;;;;15.67;29.43;100183.00;5043691;28;20353;-79
2021/04/23 10:42:31;;;;;;;5.00;2.50;;;;;;;15.51;29.68;100179.16;5044811;28;20234;-82
2021/04/23 10:45:37;;;;;;;4.10;2.50;;;;;;;15.31;28.88;100175.97;5060110;28;20276;-81
2021/04/23 10:48:24;;;;;;;5.30;2.73;;;;;;;15.92;30.16;100179.97;5044306;28;20232;-79
2021/04/23 10:51:32;;;;;;;6.27;2.90;;;;;;;16.21;28.11;100170.78;5036771;28;20480;-84
2021/04/23 10:54:23;;;;;;;4.50;2.73;;;;;;;16.38;29.01;100163.50;5017768;28;20528;-82
2021/04/23 10:57:22;;;;;;;6.50;2.87;;;;;;;16.53;28.18;100162.94;5004754;28;20670;-81
2021/04/23 11:00:40;;;;;;;3.73;2.50;;;;;;;16.52;28.66;100159.41;5036538;28;20240;-81
2021/04/23 11:03:37;;;;;;;6.97;3.00;;;;;;;16.28;28.54;100156.03;5036279;28;20224;-76
2021/04/23 11:06:20;;;;;;;5.50;2.63;;;;;;;16.60;28.61;100177.19;5021673;28;20263;-80
2021/04/23 11:09:12;;;;;;;6.07;2.90;;;;;;;16.43;27.31;100166.31;5036272;28;20319;-79
2021/04/23 11:12:21;;;;;;;4.80;2.60;;;;;;;16.52;27.04;100164.84;5036605;28;20280;-81
2021/04/23 11:15:20;;;;;;;6.33;2.50;;;;;;;16.62;26.75;100156.91;5016571;28;20710;-81
2021/04/23 11:18:31;;;;;;;5.77;2.60;;;;;;;16.49;28.59;100157.22;5008267;28;20219;-79
2021/04/23 11:21:37;;;;;;;4.53;2.33;;;;;;;16.42;28.48;100150.34;5022263;28;20223;-77
2021/04/23 11:24:27;;;;;;;3.50;2.30;;;;;;;16.43;28.27;100147.38;5035427;28;20632;-80
2021/04/23 11:27:22;;;;;;;4.97;2.30;;;;;;;16.60;28.30;100142.03;5036333;28;20255;-78
2021/04/23 11:30:12;;;;;;;6.57;2.53;;;;;;;16.42;27.34;100140.34;5015463;28;20532;-77
2021/04/23 11:33:01;;;;;;;7.30;2.83;;;;;;;16.52;28.38;100140.50;5021207;28;20228;-79
2021/04/23 11:35:55;;;;;;;4.87;2.27;;;;;;;16.61;27.96;100155.28;5021844;28;20649;-79
2021/04/23 11:38:57;;;;;;;8.13;2.77;;;;;;;16.89;28.40;100156.28;5024915;28;20231;-78
2021/04/23 11:41:35;;;;;;;3.10;2.13;;;;;;;16.92;26.97;100139.53;5035882;28;20314;-84
2021/04/23 11:44:49;;;;;;;5.90;2.47;;;;;;;16.52;28.51;100136.97;5008338;28;20224;-77
2021/04/23 11:47:45;;;;;;;6.07;2.50;;;;;;;16.73;28.86;100134.38;5002178;28;20313;-81
2021/04/23 11:50:47;;;;;;;6.70;3.30;;;;;;;16.68;28.40;100133.47;5022509;28;20229;-80
2021/04/23 11:53:47;;;;;;;5.57;2.33;;;;;;;17.21;28.11;100113.13;5027658;28;20251;-83
2021/04/23 11:56:50;;;;;;;5.33;2.40;;;;;;;17.47;27.09;100126.72;5055346;28;20559;-77
2021/04/23 12:00:01;;;;;;;5.13;2.60;;;;;;;18.01;27.13;100132.22;5042984;28;20716;-82
2021/04/23 12:02:54;;;;;;;4.50;2.90;;;;;;;17.85;27.57;100127.72;5035564;28;20240;-79
2021/04/23 12:05:47;;;;;;;5.93;2.70;;;;;;;17.50;27.95;100125.38;5035704;28;20249;-78
2021/04/23 12:08:42;;;;;;;5.70;2.70;;;;;;;17.31;27.27;100108.63;5035525;28;20510;-77
2021/04/23 12:11:31;;;;;;;5.30;2.50;;;;;;;17.72;27.41;100103.75;5005997;28;20327;-78
2021/04/23 12:14:22;;;;;;;6.17;2.80;;;;;;;18.03;27.10;100090.22;5044700;28;20705;-79
2021/04/23 12:17:12;;;;;;;6.17;3.13;;;;;;;18.08;26.38;100097.59;5050182;28;20306;-81
2021/04/23 12:19:57;;;;;;;4.43;2.90;;;;;;;18.36;26.20;100102.72;5052978;28;20301;-78
2021/04/23 12:22:44;;;;;;;7.20;3.07;;;;;;;18.60;25.49;100105.94;5034573;28;20856;-77
2021/04/23 12:25:21;;;;;;;5.37;2.63;;;;;;;18.41;26.39;100108.19;5000497;28;20303;-77
2021/04/23 12:27:56;;;;;;;5.50;2.87;;;;;;;18.13;26.02;100089.50;5036893;28;20312;-78
2021/04/23 12:30:32;;;;;;;5.53;3.03;;;;;;;18.60;25.87;100103.22;5031726;28;20245;-76
2021/04/23 12:33:04;;;;;;;6.47;2.53;;;;;;;18.72;25.56;100089.44;5017436;28;20230;-76
2021/04/23 12:35:42;;;;;;;5.93;2.70;;;;;;;18.58;25.42;100096.41;5043047;28;20629;-83
2021/04/23 12:38:17;;;;;;;4.80;2.80;;;;;;;18.87;24.71;100081.38;5038192;28;20308;-80
2021/04/23 12:40:50;;;;;;;5.63;2.80;;;;;;;19.04;25.70;100087.44;5023386;28;20235;-84
2021/04/23 12:43:24;;;;;;;3.97;2.30;;;;;;;19.12;25.11;100099.72;5036192;28;20235;-85
2021/04/23 12:45:56;;;;;;;6.00;3.13;;;;;;;18.62;26.36;100089.38;5035653;28;20320;-85
2021/04/23 12:48:27;;;;;;;5.87;2.80;;;;;;;18.83;25.94;100074.84;5037189;28;20292;-85
2021/04/23 12:50:56;;;;;;;5.70;2.60;;;;;;;18.55;25.36;100081.47;5038359;28;20225;-83
2021/04/23 12:53:37;;;;;;;4.10;2.60;;;;;;;18.52;25.48;100073.81;5040620;28;20572;-80
2021/04/23 12:56:29;;;;;;;5.60;2.80;;;;;;;18.54;24.82;100068.16;5025200;28;20599;-79
2021/04/23 12:59:09;;;;;;;6.57;2.63;;;;;;;18.79;25.94;100071.84;5007628;28;20583;-78
2021/04/23 13:01:55;;;;;;;4.50;2.57;;;;;;;18.81;25.47;100072.41;5058739;28;20220;-80
2021/04/23 13:04:40;;;;;;;7.23;2.90;;;;;;;19.04;25.39;100073.88;5036927;28;20233;-82
2021/04/23 13:07:30;;;;;;;4.17;2.83;;;;;;;19.07;24.17;100061.69;5039544;28;20222;-82
2021/04/23 13:10:07;;;;;;;4.80;2.60;;;;;;;19.04;25.53;100063.00;5046620;28;20227;-82
2021/04/23 13:12:40;;;;;;;6.10;2.80;;;;;;;19.38;24.35;100063.44;5023516;28;20228;-84
2021/04/23 13:15:24;;;;;;;5.13;2.93;;;;;;;19.51;24.03;100056.69;5033140;28;20217;-85
2021/04/23 13:18:02;;;;;;;5.33;2.87;;;;;;;19.38;24.81;100047.13;5008282;28;20225;-82
2021/04/23 13:20:34;;;;;;;5.63;2.80;;;;;;;19.22;25.72;100048.97;5055414;28;20252;-79
2021/04/23 13:23:06;;;;;;;6.80;2.90;;;;;;;18.87;25.46;100049.63;5034713;28;20220;-82
2021/04/23 13:25:45;;;;;;;8.33;3.10;;;;;;;19.24;25.29;100043.28;5031391;28;20224;-82
2021/04/23 13:28:18;;;;;;;7.37;3.20;;;;;;;19.46;24.87;100041.19;5022290;28;20228;-83
2021/04/23 13:30:57;;;;;;;5.67;2.80;;;;;;;19.60;24.90;100049.66;5057841;28;20719;-82
2021/04/23 13:34:11;;;;;;;5.67;3.67;;;;;;;18.92;24.88;100033.38;5024632;28;20220;-82
2021/04/23 13:36:51;;;;;;;5.83;3.50;;;;;;;18.20;27.04;100045.88;5016666;28;20608;-85
2021/04/23 13:39:21;;;;;;;6.33;3.40;;;;;;;17.92;27.10;100057.84;5020480;28;20342;-81